Time;durP1;ratioP1;P1;durP2;ratioP2;P2;SDS_P1;SDS_P2;PMS_P1;PMS_P2;Temp;Humidity;BMP_temperature;BMP_pressure;BME280_temperature;BME280_humidity;BME280_pressure;Samples;Min_cycle;Max_cycle;Signal;HPM_P1;HPM_P2
2021/04/10 00:01:42;;;;;;;9.68;2.30;;;7.20;90.10;;;;;;6275038;22;20046;-83
2021/04/10 00:04:13;;;;;;;9.95;2.75;;;7.20;90.00;;;;;;6276362;22;20016;-82
2021/04/10 00:06:39;;;;;;;8.13;2.40;;;7.20;90.10;;;;;;6276250;22;20027;-82
2021/04/10 00:09:06;;;;;;;9.85;2.40;;;7.10;90.10;;;;;;6275125;22;20012;-83
2021/04/10 00:11:32;;;;;;;9.10;2.17;;;7.10;90.10;;;;;;6276508;22;20091;-82
2021/04/10 00:13:58;;;;;;;7.78;2.03;;;7.10;90.10;;;;;;6275228;22;20504;-82
2021/04/10 00:16:24;;;;;;;9.65;2.22;;;7.10;90.00;;;;;;6275156;22;20092;-82
2021/04/10 00:18:49;;;;;;;7.97;2.00;;;7.10;89.80;;;;;;6275408;22;20094;-82
2021/04/10 00:21:18;;;;;;;12.93;2.60;;;7.10;89.80;;;;;;6276496;22;20016;-82
2021/04/10 00:23:43;;;;;;;8.98;2.42;;;7.10;89.80;;;;;;6275189;22;20090;-82
2021/04/10 00:26:15;;;;;;;8.75;2.28;;;7.00;89.60;;;;;;6275996;22;20073;-82
2021/04/10 00:28:41;;;;;;;8.35;2.58;;;7.00;89.70;;;;;;6276175;22;20050;-82
2021/04/10 00:31:08;;;;;;;8.73;2.10;;;7.00;89.50;;;;;;6274871;22;20015;-83
2021/04/10 00:33:39;;;;;;;8.75;1.92;;;7.00;89.50;;;;;;6276479;22;20023;-82
2021/04/10 00:36:06;;;;;;;6.70;2.08;;;7.00;89.50;;;;;;6275517;22;20435;-82
2021/04/10 00:38:33;;;;;;;8.00;1.98;;;6.90;89.20;;;;;;6275272;22;20083;-82
2021/04/10 00:41:00;;;;;;;8.52;2.10;;;6.90;89.00;;;;;;6275916;22;20085;-82
2021/04/10 00:43:26;;;;;;;7.57;2.30;;;6.90;89.70;;;;;;6275758;22;20043;-83
2021/04/10 00:45:53;;;;;;;9.55;2.03;;;6.90;89.20;;;;;;6274777;22;20476;-82
2021/04/10 00:48:19;;;;;;;7.80;2.13;;;6.90;89.10;;;;;;6276140;22;20023;-82
2021/04/10 00:50:45;;;;;;;6.63;2.13;;;6.90;88.90;;;;;;6274651;22;20523;-82
2021/04/10 00:53:20;;;;;;;7.95;2.30;;;6.90;89.00;;;;;;6276286;22;20008;-83
2021/04/10 00:55:47;;;;;;;10.07;2.30;;;6.80;88.90;;;;;;6275859;22;20024;-83
2021/04/10 00:58:13;;;;;;;8.52;2.30;;;6.80;89.10;;;;;;6274289;22;20337;-82
2021/04/10 01:00:42;;;;;;;9.70;2.15;;;6.80;89.20;;;;;;6275576;22;20099;-82
2021/04/10 01:03:08;;;;;;;10.63;2.20;;;6.80;89.20;;;;;;6276185;22;20089;-82
2021/04/10 01:05:34;;;;;;;8.65;2.15;;;6.80;90.10;;;;;;6275153;22;20011;-83
2021/04/10 01:08:00;;;;;;;7.72;1.90;;;6.80;90.00;;;;;;6275199;22;20463;-82
2021/04/10 01:10:28;;;;;;;9.18;2.25;;;6.80;90.00;;;;;;6276129;22;20378;-82
2021/04/10 01:13:01;;;;;;;7.20;1.90;;;6.80;90.20;;;;;;6274952;22;20022;-82
2021/04/10 01:15:42;;;;;;;8.57;2.35;;;6.80;90.30;;;;;;6276020;22;20028;-82
2021/04/10 01:18:16;;;;;;;7.68;2.30;;;6.80;90.20;;;;;;6275793;22;20107;-83
2021/04/10 01:20:57;;;;;;;9.02;2.60;;;6.80;90.20;;;;;;6275334;22;20020;-82
2021/04/10 01:24:04;;;;;;;6.72;2.10;;;6.80;90.20;;;;;;6276166;22;20016;-82
2021/04/10 01:26:41;;;;;;;7.03;1.98;;;6.70;90.10;;;;;;6259013;22;20016;-82
2021/04/10 01:29:11;;;;;;;10.38;2.17;;;6.70;90.10;;;;;;6276306;22;20016;-82
2021/04/10 01:31:43;;;;;;;7.82;2.00;;;6.70;89.70;;;;;;6276128;22;20077;-82
2021/04/10 01:34:36;;;;;;;6.50;1.67;;;6.70;89.80;;;;;;6274738;22;20347;-82
2021/04/10 01:37:10;;;;;;;7.95;1.80;;;6.70;89.60;;;;;;6275528;22;20081;-81
2021/04/10 01:39:37;;;;;;;7.22;1.92;;;6.70;89.90;;;;;;6276104;22;20394;-81
2021/04/10 01:42:04;;;;;;;6.45;1.80;;;6.70;90.00;;;;;;6274614;22;20343;-81
2021/04/10 01:44:31;;;;;;;7.68;1.88;;;6.70;89.90;;;;;;6275941;22;20015;-81
2021/04/10 01:46:58;;;;;;;9.55;2.22;;;6.70;89.70;;;;;;6274596;22;20012;-81
2021/04/10 01:49:26;;;;;;;7.45;1.95;;;6.70;89.80;;;;;;6275537;22;20452;-81
2021/04/10 01:51:53;;;;;;;8.00;1.63;;;6.60;89.70;;;;;;6275339;22;20348;-81
2021/04/10 01:54:19;;;;;;;10.25;1.65;;;6.60;89.80;;;;;;6275012;22;20150;-81
2021/04/10 01:56:47;;;;;;;5.90;1.75;;;6.60;89.50;;;;;;6275483;22;20132;-82
2021/04/10 01:59:17;;;;;;;8.50;1.70;;;6.60;89.40;;;;;;6276065;22;20011;-82
2021/04/10 02:01:47;;;;;;;6.55;1.60;;;6.60;89.70;;;;;;6273982;22;20031;-81
2021/04/10 02:04:13;;;;;;;6.22;1.80;;;6.60;89.80;;;;;;6275580;22;20073;-82
2021/04/10 02:06:46;;;;;;;5.55;1.60;;;6.60;89.90;;;;;;6275649;22;20008;-82
2021/04/10 02:09:12;;;;;;;8.43;1.73;;;6.60;89.80;;;;;;6275003;22;20058;-80
2021/04/10 02:11:43;;;;;;;5.72;1.75;;;6.60;89.80;;;;;;6275551;22;20019;-82
2021/04/10 02:14:12;;;;;;;9.27;2.17;;;6.60;90.10;;;;;;6275854;22;20008;-82
2021/04/10 02:16:38;;;;;;;6.20;1.75;;;6.50;90.20;;;;;;6274782;22;20436;-81
2021/04/10 02:19:05;;;;;;;5.70;1.63;;;6.50;90.10;;;;;;6275424;22;20018;-82
2021/04/10 02:21:33;;;;;;;7.10;2.00;;;6.50;90.20;;;;;;6275818;22;20018;-82
2021/04/10 02:23:59;;;;;;;8.27;1.77;;;6.50;90.60;;;;;;6274817;22;20094;-82
2021/04/10 02:26:24;;;;;;;7.68;1.95;;;6.50;90.20;;;;;;6277176;22;20494;-82
2021/04/10 02:28:50;;;;;;;6.53;1.67;;;6.50;90.30;;;;;;6276749;22;20034;-81
2021/04/10 02:31:43;;;;;;;6.38;1.70;;;6.50;90.30;;;;;;6275732;22;20031;-81
2021/04/10 02:34:16;;;;;;;7.50;1.90;;;6.50;90.40;;;;;;6277679;22;20038;-83
2021/04/10 02:36:44;;;;;;;7.85;1.67;;;6.50;90.40;;;;;;6276252;22;20094;-82
2021/04/10 02:39:10;;;;;;;6.30;1.63;;;6.40;90.40;;;;;;6277748;22;20039;-82
2021/04/10 02:41:37;;;;;;;6.57;1.67;;;6.40;90.30;;;;;;6277079;22;20099;-82
2021/04/10 02:44:07;;;;;;;8.77;1.73;;;6.50;90.30;;;;;;6276307;22;20073;-82
2021/04/10 02:46:48;;;;;;;5.07;1.60;;;6.50;90.30;;;;;;6277670;22;20070;-81
2021/04/10 02:49:22;;;;;;;8.32;1.80;;;6.40;90.30;;;;;;6277201;22;20019;-81
2021/04/10 02:51:56;;;;;;;7.22;1.77;;;6.40;90.50;;;;;;6275893;22;20069;-81
2021/04/10 02:54:26;;;;;;;7.70;1.75;;;6.40;90.50;;;;;;6277323;22;20012;-82
2021/04/10 02:57:04;;;;;;;10.32;1.90;;;6.40;90.50;;;;;;6276050;22;20015;-82
2021/04/10 02:59:33;;;;;;;5.03;1.70;;;6.40;90.50;;;;;;6276524;22;20096;-82
2021/04/10 03:02:02;;;;;;;7.95;1.70;;;6.40;90.40;;;;;;6276146;22;20525;-82
2021/04/10 03:04:29;;;;;;;5.90;1.48;;;6.40;90.40;;;;;;6275934;22;20340;-82
2021/04/10 03:06:56;;;;;;;6.95;1.58;;;6.40;90.40;;;;;;6276353;22;20012;-82
2021/04/10 03:09:22;;;;;;;7.22;1.83;;;6.30;90.30;;;;;;6276695;22;20043;-82
2021/04/10 03:11:48;;;;;;;7.63;1.50;;;6.30;90.20;;;;;;6275847;22;20016;-81
2021/04/10 03:14:14;;;;;;;8.80;1.60;;;6.40;90.30;;;;;;6277311;22;20070;-81
2021/04/10 03:16:43;;;;;;;7.63;1.75;;;6.40;90.20;;;;;;6276775;22;20340;-82
2021/04/10 03:19:10;;;;;;;6.45;1.30;;;6.40;90.30;;;;;;6276109;22;20012;-82
2021/04/10 03:21:39;;;;;;;5.70;1.42;;;6.30;90.20;;;;;;6277161;22;20023;-82
2021/04/10 03:24:06;;;;;;;9.75;1.67;;;6.30;90.10;;;;;;6276755;22;20016;-82
2021/04/10 03:26:31;;;;;;;8.07;1.67;;;6.30;90.20;;;;;;6275684;22;20375;-81
2021/04/10 03:28:58;;;;;;;6.22;1.40;;;6.30;90.20;;;;;;6276928;22;20062;-81
2021/04/10 03:31:24;;;;;;;4.32;1.40;;;6.30;90.20;;;;;;6276841;22;20344;-82
2021/04/10 03:33:50;;;;;;;7.35;1.60;;;6.30;90.20;;;;;;6275686;22;20068;-81
2021/04/10 03:36:16;;;;;;;6.43;1.50;;;6.30;90.10;;;;;;6277187;22;20070;-81
2021/04/10 03:38:42;;;;;;;5.28;1.38;;;6.30;90.20;;;;;;6276668;22;20012;-82
2021/04/10 03:41:08;;;;;;;10.80;2.00;;;6.30;90.20;;;;;;6275138;22;20070;-82
2021/04/10 03:43:34;;;;;;;6.50;1.83;;;6.30;90.00;;;;;;6276911;22;20016;-82
2021/04/10 03:46:02;;;;;;;6.43;1.60;;;6.20;90.10;;;;;;6276051;22;20353;-82
2021/04/10 03:48:28;;;;;;;7.10;1.60;;;6.20;90.20;;;;;;6275696;22;20015;-81
2021/04/10 03:50:54;;;;;;;6.97;1.63;;;6.20;90.10;;;;;;6275081;22;20027;-82
2021/04/10 03:53:20;;;;;;;7.28;1.80;;;6.20;90.00;;;;;;6276141;22;20012;-82
2021/04/10 03:55:46;;;;;;;7.03;1.58;;;6.20;90.00;;;;;;6275407;22;20047;-82
2021/04/10 03:58:11;;;;;;;6.15;1.70;;;6.20;90.00;;;;;;6276569;22;20313;-82
2021/04/10 04:00:37;;;;;;;6.40;1.70;;;6.20;90.20;;;;;;6275625;22;20023;-83
2021/04/10 04:03:03;;;;;;;7.63;1.58;;;6.20;90.40;;;;;;6276015;22;20023;-83
2021/04/10 04:05:29;;;;;;;6.78;1.75;;;6.20;90.40;;;;;;6276768;22;20012;-83
2021/04/10 04:07:57;;;;;;;6.47;1.70;;;6.20;90.40;;;;;;6275393;22;20015;-83
2021/04/10 04:10:23;;;;;;;6.65;1.67;;;6.10;90.50;;;;;;6276063;22;20060;-82
2021/04/10 04:12:49;;;;;;;6.50;1.42;;;6.10;90.50;;;;;;6275941;22;20019;-82
2021/04/10 04:15:15;;;;;;;7.70;1.67;;;6.10;90.90;;;;;;6274508;22;20015;-83
2021/04/10 04:17:41;;;;;;;6.95;1.80;;;6.10;90.50;;;;;;6275925;22;20026;-82
2021/04/10 04:20:07;;;;;;;7.22;1.52;;;6.10;90.50;;;;;;6275995;22;20020;-83
2021/04/10 04:22:32;;;;;;;4.78;1.30;;;6.10;90.50;;;;;;6275313;22;20016;-83
2021/04/10 04:24:58;;;;;;;8.73;2.13;;;6.10;90.60;;;;;;6275803;22;20018;-83
2021/04/10 04:27:24;;;;;;;6.85;1.48;;;6.10;90.50;;;;;;6276549;22;20157;-83
2021/04/10 04:29:51;;;;;;;6.35;1.65;;;6.10;90.50;;;;;;6275218;22;20369;-83
2021/04/10 04:32:20;;;;;;;5.88;1.38;;;6.10;90.60;;;;;;6276748;22;20047;-82
2021/04/10 04:34:45;;;;;;;6.72;1.40;;;6.10;90.60;;;;;;6276311;22;20018;-83
2021/04/10 04:37:11;;;;;;;7.32;1.60;;;6.10;90.60;;;;;;6275022;22;20449;-83
2021/04/10 04:39:37;;;;;;;7.32;1.70;;;6.10;90.60;;;;;;6276527;22;20463;-83
2021/04/10 04:42:02;;;;;;;6.20;1.60;;;6.00;90.60;;;;;;6276274;22;20019;-84
2021/04/10 04:44:28;;;;;;;8.07;1.90;;;6.00;90.60;;;;;;6275394;22;20091;-82
2021/04/10 04:46:54;;;;;;;5.93;1.60;;;6.00;90.60;;;;;;6275921;22;20023;-83
2021/04/10 04:49:20;;;;;;;7.50;1.80;;;6.00;90.70;;;;;;6276498;22;20022;-83
2021/04/10 04:51:46;;;;;;;6.53;1.77;;;6.00;90.50;;;;;;6274813;22;20016;-82
2021/04/10 04:54:12;;;;;;;7.50;1.88;;;6.00;90.50;;;;;;6276332;22;20034;-83
2021/04/10 04:56:37;;;;;;;6.85;1.67;;;6.00;90.60;;;;;;6276004;22;20452;-84
2021/04/10 04:59:06;;;;;;;5.75;1.92;;;6.00;90.60;;;;;;6274766;22;20016;-83
2021/04/10 05:01:31;;;;;;;5.63;1.75;;;6.00;90.60;;;;;;6275549;22;20329;-83
2021/04/10 05:04:00;;;;;;;8.30;2.00;;;6.00;90.60;;;;;;6274701;22;20034;-83
2021/04/10 05:06:25;;;;;;;5.78;1.63;;;6.00;90.60;;;;;;6276508;22;20038;-80
2021/04/10 05:08:51;;;;;;;7.10;1.92;;;5.90;90.70;;;;;;6275531;22;20456;-83
2021/04/10 05:11:17;;;;;;;6.93;1.95;;;6.00;90.80;;;;;;6249967;22;20023;-80
2021/04/10 05:13:42;;;;;;;8.75;2.28;;;6.00;90.70;;;;;;6276232;22;20460;-81
2021/04/10 05:16:08;;;;;;;6.95;2.10;;;5.90;90.70;;;;;;6276299;22;20432;-80
2021/04/10 05:18:34;;;;;;;8.10;1.98;;;6.00;90.80;;;;;;6275089;22;20019;-80
2021/04/10 05:21:00;;;;;;;6.47;2.05;;;6.00;90.80;;;;;;6275668;22;20025;-80
2021/04/10 05:23:25;;;;;;;8.27;2.10;;;5.90;90.70;;;;;;6276164;22;20442;-80
2021/04/10 05:25:51;;;;;;;8.68;1.95;;;5.90;90.70;;;;;;6274858;22;20020;-81
2021/04/10 05:28:17;;;;;;;7.22;2.30;;;5.90;90.70;;;;;;6276262;22;20012;-84
2021/04/10 05:30:43;;;;;;;7.63;2.00;;;5.90;90.80;;;;;;6276118;22;20046;-83
2021/04/10 05:33:10;;;;;;;6.70;1.95;;;5.90;90.70;;;;;;6275361;22;20016;-84
2021/04/10 05:35:35;;;;;;;6.45;1.95;;;5.90;90.60;;;;;;6275964;22;20380;-83
2021/04/10 05:38:02;;;;;;;7.38;2.30;;;5.90;90.60;;;;;;6275585;22;20077;-82
2021/04/10 05:40:28;;;;;;;8.68;2.40;;;5.90;90.70;;;;;;6274548;22;20441;-83
2021/04/10 05:42:57;;;;;;;7.32;2.13;;;5.90;90.80;;;;;;6275607;22;20099;-83
2021/04/10 05:45:35;;;;;;;7.07;2.60;;;5.90;90.70;;;;;;6275963;22;20012;-83
2021/04/10 05:48:03;;;;;;;8.52;2.35;;;5.80;90.90;;;;;;6274176;22;20375;-83
2021/04/10 05:50:29;;;;;;;7.70;2.40;;;5.80;90.70;;;;;;6275979;22;20050;-83
2021/04/10 05:53:02;;;;;;;7.90;2.33;;;5.80;90.80;;;;;;6275299;22;20065;-83
2021/04/10 05:55:28;;;;;;;8.55;2.10;;;5.90;90.90;;;;;;6275899;22;20043;-83
2021/04/10 05:57:56;;;;;;;5.60;2.10;;;5.80;90.80;;;;;;6276172;22;20318;-83
2021/04/10 06:00:22;;;;;;;6.60;2.17;;;5.90;90.80;;;;;;6276354;22;20046;-83
2021/04/10 06:03:09;;;;;;;8.82;2.25;;;5.90;90.80;;;;;;6275874;22;20454;-82
2021/04/10 06:05:35;;;;;;;11.52;2.35;;;5.90;90.80;;;;;;6275920;22;20012;-83
2021/04/10 06:08:00;;;;;;;8.80;1.95;;;5.80;90.70;;;;;;6275950;22;20019;-83
2021/04/10 06:10:30;;;;;;;9.05;2.58;;;5.80;90.80;;;;;;6277203;22;20016;-82
2021/04/10 06:13:25;;;;;;;7.97;2.33;;;5.90;90.90;;;;;;6277089;22;20020;-84
2021/04/10 06:15:54;;;;;;;8.57;2.30;;;5.90;90.70;;;;;;6141089;22;20029;-82
2021/04/10 06:18:34;;;;;;;8.15;2.45;;;5.90;90.80;;;;;;6277156;22;20016;-83
2021/04/10 06:21:06;;;;;;;6.82;2.35;;;5.90;90.90;;;;;;6276346;22;20096;-84
2021/04/10 06:23:52;;;;;;;8.13;2.30;;;5.90;91.00;;;;;;6275420;22;20453;-83
2021/04/10 06:26:47;;;;;;;9.77;2.10;;;5.90;90.80;;;;;;6276973;22;20023;-83
2021/04/10 06:29:17;;;;;;;9.15;1.90;;;5.90;90.90;;;;;;6273555;22;20051;-86
2021/04/10 06:31:43;;;;;;;6.55;1.75;;;6.00;90.80;;;;;;6277127;22;20110;-86
2021/04/10 06:34:17;;;;;;;11.90;2.63;;;5.90;90.70;;;;;;6277479;22;20039;-85
2021/04/10 06:36:43;;;;;;;8.52;2.22;;;5.90;90.80;;;;;;6276206;22;20094;-82
2021/04/10 06:39:09;;;;;;;8.95;2.00;;;5.90;90.70;;;;;;6277276;22;20427;-83
2021/04/10 06:41:35;;;;;;;6.95;1.63;;;5.90;90.60;;;;;;6277362;22;20016;-83
2021/04/10 06:44:02;;;;;;;9.45;2.03;;;5.90;90.60;;;;;;6276203;22;20016;-83
2021/04/10 06:46:32;;;;;;;10.40;2.30;;;5.90;90.60;;;;;;6277212;22;20332;-84
2021/04/10 06:48:59;;;;;;;12.88;1.80;;;5.90;90.50;;;;;;6277352;22;20083;-87
2021/04/10 06:51:27;;;;;;;12.05;1.80;;;5.90;90.50;;;;;;6276195;22;20344;-83
2021/04/10 06:53:54;;;;;;;9.95;1.77;;;5.90;90.40;;;;;;6276592;22;20024;-86
2021/04/10 06:56:30;;;;;;;8.70;1.92;;;5.90;90.20;;;;;;6276386;22;20045;-86
2021/04/10 06:59:45;;;;;;;6.57;1.48;;;5.90;90.30;;;;;;6276464;22;20016;-83
2021/04/10 07:02:11;;;;;;;;;;;5.90;90.30;;;;;;6229823;22;20308;-83
2021/04/10 07:04:38;;;;;;;6.95;1.70;;;5.90;90.00;;;;;;6276057;22;19911;-83
2021/04/10 07:07:06;;;;;;;9.38;1.80;;;5.90;90.40;;;;;;6276751;22;20020;-81
2021/04/10 07:09:34;;;;;;;12.07;1.92;;;5.90;90.30;;;;;;6277051;22;20012;-82
2021/04/10 07:12:01;;;;;;;12.60;1.80;;;5.90;90.40;;;;;;6275422;22;20073;-82
2021/04/10 07:14:28;;;;;;;10.13;2.08;;;6.00;90.30;;;;;;6275501;22;20372;-82
2021/04/10 07:16:56;;;;;;;7.82;1.95;;;6.00;90.40;;;;;;6276359;22;20050;-82
2021/04/10 07:19:24;;;;;;;9.10;1.88;;;6.00;90.40;;;;;;6276278;22;20016;-82
2021/04/10 07:22:11;;;;;;;8.73;1.52;;;6.10;90.40;;;;;;6276724;22;20023;-81
2021/04/10 07:24:49;;;;;;;9.20;2.20;;;6.10;90.40;;;;;;6275926;22;20027;-82
2021/04/10 07:27:20;;;;;;;9.05;1.92;;;6.10;90.50;;;;;;6276745;22;20027;-82
2021/04/10 07:29:58;;;;;;;10.05;1.90;;;6.10;90.50;;;;;;6276425;22;20011;-82
2021/04/10 07:32:25;;;;;;;9.30;1.85;;;6.20;90.60;;;;;;6274490;22;20022;-83
2021/04/10 07:34:52;;;;;;;8.40;2.05;;;6.20;90.50;;;;;;6276855;22;20020;-83
2021/04/10 07:37:43;;;;;;;11.10;1.88;;;6.20;90.40;;;;;;6276585;22;20026;-82
2021/04/10 07:40:28;;;;;;;8.90;1.92;;;6.30;90.40;;;;;;6275223;22;20019;-84
2021/04/10 07:43:00;;;;;;;8.82;1.45;;;6.30;90.20;;;;;;6276460;22;20061;-85
2021/04/10 07:45:33;;;;;;;9.13;1.60;;;6.30;90.30;;;;;;6277414;22;20018;-85
2021/04/10 07:48:05;;;;;;;;;;;6.30;90.30;;;;;;6277180;22;20012;-84
2021/04/10 07:50:35;;;;;;;9.90;1.20;;;6.30;90.10;;;;;;6276489;22;19922;-85
2021/04/10 07:53:21;;;;;;;10.65;1.77;;;6.30;90.30;;;;;;6274231;22;20043;-84
2021/04/10 07:55:47;;;;;;;9.70;1.52;;;6.30;90.30;;;;;;6276601;22;20015;-84
2021/04/10 07:58:23;;;;;;;10.15;1.70;;;6.40;90.30;;;;;;6276695;22;20011;-83
2021/04/10 08:00:50;;;;;;;9.55;1.70;;;6.40;90.20;;;;;;6274761;22;20023;-81
2021/04/10 08:03:37;;;;;;;9.80;1.73;;;6.40;90.20;;;;;;6275270;22;20505;-82
2021/04/10 08:06:06;;;;;;;8.70;1.60;;;6.50;90.20;;;;;;6276279;22;20093;-83
2021/04/10 08:08:54;;;;;;;6.68;1.42;;;6.50;90.20;;;;;;6274440;22;20482;-84
2021/04/10 08:11:30;;;;;;;9.38;1.75;;;6.50;90.10;;;;;;6276227;22;20023;-83
2021/04/10 08:13:57;;;;;;;13.80;1.85;;;6.60;90.10;;;;;;6275640;22;20012;-82
2021/04/10 08:16:24;;;;;;;9.85;1.60;;;6.60;90.00;;;;;;6276874;22;20066;-82
2021/04/10 08:18:56;;;;;;;9.27;1.67;;;6.70;90.00;;;;;;6276397;22;20444;-83
2021/04/10 08:21:37;;;;;;;9.68;1.90;;;6.70;90.00;;;;;;6275071;22;20337;-84
2021/04/10 08:24:25;;;;;;;8.02;1.50;;;6.70;90.00;;;;;;6276554;22;20360;-83
2021/04/10 08:26:56;;;;;;;10.15;1.50;;;6.80;90.00;;;;;;6276203;22;20345;-83
2021/04/10 08:29:23;;;;;;;12.30;1.63;;;6.80;90.00;;;;;;6275850;22;20019;-83
2021/04/10 08:31:49;;;;;;;9.35;1.35;;;6.80;89.80;;;;;;6275989;22;20460;-83
2021/04/10 08:34:14;;;;;;;12.15;1.88;;;6.90;89.50;;;;;;6276801;22;20019;-83
2021/04/10 08:36:42;;;;;;;11.57;1.77;;;6.90;89.40;;;;;;6275313;22;20024;-83
2021/04/10 08:39:11;;;;;;;9.43;1.52;;;6.90;89.50;;;;;;6276509;22;20015;-83
2021/04/10 08:41:39;;;;;;;12.95;1.70;;;6.90;89.50;;;;;;6276733;22;20034;-83
2021/04/10 08:44:09;;;;;;;12.68;1.77;;;7.00;89.30;;;;;;6275356;22;20026;-83
2021/04/10 08:46:37;;;;;;;6.55;1.40;;;7.00;88.60;;;;;;6276603;22;20019;-83
2021/04/10 08:49:05;;;;;;;10.90;1.70;;;7.00;88.70;;;;;;6275239;22;20019;-83
2021/04/10 08:51:37;;;;;;;13.70;1.70;;;7.10;88.90;;;;;;6276716;22;20016;-83
2021/04/10 08:54:06;;;;;;;10.98;1.70;;;7.10;88.40;;;;;;6276310;22;20339;-83
2021/04/10 08:56:32;;;;;;;10.10;1.67;;;7.10;88.50;;;;;;6275628;22;20020;-83
2021/04/10 08:59:16;;;;;;;10.63;1.60;;;7.10;88.20;;;;;;6276164;22;20020;-83
2021/04/10 09:01:44;;;;;;;12.43;1.90;;;7.20;88.20;;;;;;6276421;22;20091;-83
2021/04/10 09:04:11;;;;;;;8.68;1.50;;;7.20;88.00;;;;;;6275626;22;20023;-83
2021/04/10 09:06:40;;;;;;;11.32;1.70;;;7.30;88.40;;;;;;6276635;22;20020;-84
2021/04/10 09:09:12;;;;;;;9.02;1.67;;;7.30;88.50;;;;;;6276557;22;20012;-83
2021/04/10 09:11:39;;;;;;;7.80;1.67;;;7.30;88.40;;;;;;6274970;22;20474;-83
2021/04/10 09:14:05;;;;;;;7.82;1.45;;;7.40;88.50;;;;;;6276222;22;20039;-84
2021/04/10 09:16:39;;;;;;;6.75;1.73;;;7.40;88.40;;;;;;6275965;22;20099;-83
2021/04/10 09:19:11;;;;;;;6.70;1.40;;;7.50;88.40;;;;;;6275164;22;20087;-83
2021/04/10 09:21:51;;;;;;;9.90;1.80;;;7.50;88.30;;;;;;6276600;22;20020;-83
2021/04/10 09:24:41;;;;;;;11.82;2.10;;;7.50;88.20;;;;;;6275287;22;20060;-83
2021/04/10 09:27:22;;;;;;;9.25;1.45;;;7.50;88.30;;;;;;6276926;22;20015;-83
2021/04/10 09:30:03;;;;;;;6.90;1.83;;;7.60;87.70;;;;;;6276028;22;20023;-83
2021/04/10 09:32:33;;;;;;;9.52;1.52;;;7.60;87.80;;;;;;6276694;22;20026;-83
2021/04/10 09:35:08;;;;;;;9.95;1.60;;;7.70;87.90;;;;;;6278031;22;20050;-83
2021/04/10 09:37:33;;;;;;;13.23;1.90;;;7.70;88.00;;;;;;6278421;22;20016;-83
2021/04/10 09:40:02;;;;;;;12.60;2.08;;;7.70;88.00;;;;;;6276683;22;20019;-83
2021/04/10 09:42:46;;;;;;;8.98;1.90;;;7.80;88.00;;;;;;6278063;22;20348;-83
2021/04/10 09:45:22;;;;;;;6.72;1.40;;;7.80;87.50;;;;;;6277236;22;20015;-83
2021/04/10 09:48:03;;;;;;;14.10;1.77;;;7.80;87.40;;;;;;6278007;22;20039;-83
2021/04/10 09:51:03;;;;;;;9.70;1.50;;;7.80;87.40;;;;;;6278484;22;20075;-83
2021/04/10 09:53:31;;;;;;;15.20;1.80;;;7.90;87.40;;;;;;6258766;22;20383;-83
2021/04/10 09:56:05;;;;;;;8.18;1.75;;;7.90;87.30;;;;;;6277707;22;20016;-84
2021/04/10 09:58:35;;;;;;;13.38;1.63;;;8.00;86.90;;;;;;6277561;22;20039;-83
2021/04/10 10:01:04;;;;;;;8.77;1.50;;;8.00;86.60;;;;;;6275379;22;20334;-82
2021/04/10 10:03:30;;;;;;;9.65;1.60;;;8.00;86.80;;;;;;6277316;22;20375;-85
2021/04/10 10:05:56;;;;;;;10.35;1.77;;;8.00;87.00;;;;;;6276991;22;20046;-81
2021/04/10 10:08:27;;;;;;;9.35;1.73;;;8.10;86.90;;;;;;6276799;22;20440;-83
2021/04/10 10:11:04;;;;;;;12.93;1.73;;;8.10;86.80;;;;;;6277572;22;20028;-83
2021/04/10 10:13:31;;;;;;;10.23;1.90;;;8.10;86.70;;;;;;6276890;22;20025;-83
2021/04/10 10:16:00;;;;;;;10.57;1.75;;;8.20;86.80;;;;;;6277520;22;20019;-83
2021/04/10 10:18:30;;;;;;;11.20;1.92;;;8.30;86.70;;;;;;6278025;22;20039;-83
2021/04/10 10:20:55;;;;;;;7.30;1.60;;;8.30;86.60;;;;;;6276221;22;20022;-83
2021/04/10 10:23:23;;;;;;;9.65;1.60;;;8.30;86.80;;;;;;6277952;22;20337;-83
2021/04/10 10:25:49;;;;;;;8.05;1.40;;;8.40;87.30;;;;;;6277639;22;20012;-84
2021/04/10 10:28:16;;;;;;;6.05;1.70;;;8.40;86.60;;;;;;6276806;22;20126;-84
2021/04/10 10:30:43;;;;;;;10.07;2.40;;;8.40;86.40;;;;;;6277222;22;20333;-82
2021/04/10 10:33:10;;;;;;;12.43;2.22;;;8.50;85.70;;;;;;6277818;22;20019;-86
2021/04/10 10:35:36;;;;;;;7.30;1.50;;;8.50;85.70;;;;;;6276363;22;20091;-83
2021/04/10 10:38:08;;;;;;;7.60;1.50;;;8.50;85.30;;;;;;6277205;22;20043;-82
2021/04/10 10:40:34;;;;;;;14.15;2.03;;;8.60;85.50;;;;;;6277082;22;20011;-82
2021/04/10 10:43:09;;;;;;;11.23;1.90;;;8.60;85.10;;;;;;6275585;22;20020;-83
2021/04/10 10:45:49;;;;;;;7.72;1.70;;;8.60;85.20;;;;;;6275909;22;20020;-83
2021/04/10 10:48:25;;;;;;;13.18;2.03;;;8.70;84.90;;;;;;6276398;22;20083;-84
2021/04/10 10:50:52;;;;;;;;;;;8.70;84.90;;;;;;6276909;22;20022;-84
2021/04/10 10:53:26;;;;;;;7.45;1.40;;;8.70;84.50;;;;;;6277072;22;19961;-85
2021/04/10 10:56:01;;;;;;;7.53;1.85;;;8.70;85.50;;;;;;6276053;22;20026;-85
2021/04/10 10:58:50;;;;;;;10.68;1.92;;;8.80;85.50;;;;;;6277021;22;20371;-86
2021/04/10 11:01:19;;;;;;;10.30;1.80;;;8.80;85.60;;;;;;6274622;22;20099;-84
2021/04/10 11:03:51;;;;;;;9.93;2.03;;;8.90;85.40;;;;;;6275452;22;20456;-84
2021/04/10 11:06:19;;;;;;;11.25;1.95;;;8.90;85.50;;;;;;6277361;22;20042;-85
2021/04/10 11:08:46;;;;;;;8.55;1.80;;;9.00;84.90;;;;;;6276571;22;20317;-84
2021/04/10 11:11:14;;;;;;;8.52;1.63;;;9.00;84.80;;;;;;6275200;22;20027;-85
2021/04/10 11:13:42;;;;;;;7.35;1.38;;;9.00;84.40;;;;;;6276863;22;20020;-84
2021/04/10 11:16:08;;;;;;;7.95;1.70;;;9.10;84.40;;;;;;6276956;22;20094;-84
2021/04/10 11:18:34;;;;;;;7.90;1.95;;;9.10;85.30;;;;;;6276117;22;20389;-85
2021/04/10 11:21:18;;;;;;;8.25;2.00;;;9.10;83.80;;;;;;6276849;22;20016;-84
2021/04/10 11:24:00;;;;;;;8.63;1.50;;;9.10;83.90;;;;;;6275899;22;20318;-84
2021/04/10 11:26:34;;;;;;;9.27;1.80;;;9.20;84.00;;;;;;6276876;22;20087;-84
2021/04/10 11:29:24;;;;;;;10.90;2.08;;;9.20;83.40;;;;;;6276684;22;20061;-85
2021/04/10 11:32:11;;;;;;;7.70;1.77;;;9.30;83.50;;;;;;6275218;22;20471;-82
2021/04/10 11:34:43;;;;;;;11.18;1.90;;;9.30;83.20;;;;;;6277084;22;20020;-84
2021/04/10 11:37:10;;;;;;;6.85;1.65;;;9.30;83.60;;;;;;6276887;22;20023;-83
2021/04/10 11:39:57;;;;;;;7.38;1.55;;;9.40;84.20;;;;;;6276024;22;20098;-84
2021/04/10 11:42:29;;;;;;;7.50;1.58;;;9.40;83.70;;;;;;6275617;22;20524;-85
2021/04/10 11:45:10;;;;;;;7.18;1.67;;;9.40;84.00;;;;;;6275540;22;20318;-85
2021/04/10 11:47:40;;;;;;;6.93;2.20;;;9.50;84.60;;;;;;6276815;22;20019;-86
2021/04/10 11:50:37;;;;;;;7.28;2.03;;;9.60;84.80;;;;;;6277232;22;20015;-84
2021/04/10 11:53:21;;;;;;;8.18;1.83;;;9.60;85.10;;;;;;6274854;22;20023;-85
2021/04/10 11:55:51;;;;;;;10.98;2.10;;;9.60;85.30;;;;;;6274847;22;20027;-84
2021/04/10 11:58:31;;;;;;;8.70;1.48;;;9.70;85.50;;;;;;6274998;22;20448;-83
2021/04/10 12:01:07;;;;;;;8.23;1.63;;;9.80;84.60;;;;;;6275587;22;20091;-86
2021/04/10 12:04:11;;;;;;;8.30;1.60;;;9.80;84.20;;;;;;6276931;22;20062;-85
2021/04/10 12:07:17;;;;;;;4.47;1.70;;;9.80;83.30;;;;;;6275858;22;20023;-85
2021/04/10 12:09:43;;;;;;;7.88;2.00;;;9.80;83.90;;;;;;6276374;22;20069;-85
2021/04/10 12:12:18;;;;;;;8.32;1.80;;;9.80;83.90;;;;;;6275364;22;20023;-84
2021/04/10 12:14:50;;;;;;;9.02;1.58;;;9.90;83.90;;;;;;6273175;22;20020;-86
2021/04/10 12:17:25;;;;;;;7.40;1.65;;;9.90;84.00;;;;;;6274864;22;20093;-86
2021/04/10 12:19:59;;;;;;;7.97;1.70;;;9.90;84.30;;;;;;6275348;22;20099;-86
2021/04/10 12:22:28;;;;;;;6.45;1.63;;;9.90;84.50;;;;;;6276642;22;20042;-85
2021/04/10 12:24:54;;;;;;;8.00;1.52;;;10.00;84.50;;;;;;6274312;22;20023;-85
2021/04/10 12:27:22;;;;;;;9.65;1.70;;;10.00;84.00;;;;;;6273740;22;20012;-85
2021/04/10 12:29:49;;;;;;;9.50;1.48;;;10.00;83.60;;;;;;6274181;22;20026;-85
2021/04/10 12:32:17;;;;;;;7.75;1.70;;;10.00;83.30;;;;;;6275132;22;20412;-86
2021/04/10 12:34:43;;;;;;;9.27;1.60;;;10.10;83.90;;;;;;6273528;22;20020;-84
2021/04/10 12:37:52;;;;;;;8.43;1.75;;;10.10;84.10;;;;;;6274948;22;20016;-85
2021/04/10 12:40:36;;;;;;;6.50;1.50;;;10.10;84.60;;;;;;6276072;22;20026;-85
2021/04/10 12:43:05;;;;;;;8.77;1.73;;;10.10;83.90;;;;;;6273704;22;20047;-85
2021/04/10 12:45:30;;;;;;;10.98;1.73;;;10.10;84.50;;;;;;6274361;22;20391;-85
2021/04/10 12:48:00;;;;;;;6.70;1.75;;;10.20;84.90;;;;;;6274267;22;20383;-84
2021/04/10 12:50:26;;;;;;;6.93;1.95;;;10.20;84.80;;;;;;6275707;22;20506;-83
2021/04/10 12:52:52;;;;;;;9.18;1.60;;;10.20;84.90;;;;;;6276353;22;20016;-83
2021/04/10 12:59:30;;;;;;;8.57;2.08;;;10.30;84.90;;;;;;6229714;22;20044;-82
2021/04/10 13:23:21;;;;;;;7.35;1.65;;;10.30;84.20;;;;;;6234711;22;20550;-83
2021/04/10 13:25:47;;;;;;;8.45;1.80;;;10.30;84.70;;;;;;6243628;23;20344;-83
2021/04/10 13:28:15;;;;;;;8.85;1.80;;;10.40;84.80;;;;;;6243887;23;20321;-83
2021/04/10 13:30:50;;;;;;;6.32;1.95;;;10.50;84.30;;;;;;6243754;23;20390;-84
2021/04/10 13:33:30;;;;;;;8.88;2.15;;;10.50;83.70;;;;;;6245564;23;20341;-84
2021/04/10 13:35:59;;;;;;;9.13;1.88;;;10.40;83.70;;;;;;6242966;23;20020;-84
2021/04/10 13:38:34;;;;;;;8.38;1.95;;;10.40;84.10;;;;;;6243694;23;20020;-83
2021/04/10 13:41:03;;;;;;;8.60;1.80;;;10.50;84.60;;;;;;6244906;23;20017;-83